createdAt,value
2022-10-08T00:00:33.000Z,17.8
2022-10-08T00:01:49.000Z,14.8
2022-10-08T00:03:06.000Z,10.7
2022-10-08T00:04:21.000Z,13.8
2022-10-08T00:05:37.000Z,14.1
2022-10-08T00:06:53.000Z,12.5
2022-10-08T00:08:10.000Z,11.3
2022-10-08T00:09:26.000Z,15.9
2022-10-08T00:10:42.000Z,15.5
2022-10-08T00:11:58.000Z,14.5
2022-10-08T00:13:14.000Z,12.1
2022-10-08T00:14:31.000Z,13.8
2022-10-08T00:15:47.000Z,12.4
2022-10-08T00:17:03.000Z,12.6
2022-10-08T00:18:19.000Z,19.7
2022-10-08T00:19:36.000Z,13.5
2022-10-08T00:20:51.000Z,17.9
2022-10-08T00:22:07.000Z,13.8
2022-10-08T00:23:23.000Z,13.8
2022-10-08T00:24:40.000Z,17.8
2022-10-08T00:25:56.000Z,14.2
2022-10-08T00:27:11.000Z,12.2
2022-10-08T00:28:26.000Z,17.8
2022-10-08T00:29:43.000Z,15.3
2022-10-08T00:30:58.000Z,14.6
2022-10-08T00:32:13.000Z,28.1
2022-10-08T00:33:29.000Z,15.5
2022-10-08T00:34:46.000Z,13.4
2022-10-08T00:36:02.000Z,17.4
2022-10-08T00:37:18.000Z,15.6
2022-10-08T00:38:34.000Z,12.6
2022-10-08T00:39:50.000Z,19.4
2022-10-08T00:41:07.000Z,14.7
2022-10-08T00:42:23.000Z,19.1
2022-10-08T00:43:39.000Z,13
2022-10-08T00:44:55.000Z,11.2
2022-10-08T00:46:12.000Z,9.8
2022-10-08T00:47:28.000Z,15.4
2022-10-08T00:48:43.000Z,20.9
2022-10-08T00:49:59.000Z,16.8
2022-10-08T00:51:16.000Z,11.8
2022-10-08T00:52:32.000Z,14
2022-10-08T00:53:47.000Z,15.1
2022-10-08T00:55:03.000Z,16.9
2022-10-08T00:56:20.000Z,12.3
2022-10-08T00:57:35.000Z,13.4
2022-10-08T00:58:50.000Z,15
2022-10-08T01:00:06.000Z,10
2022-10-08T01:01:22.000Z,15.5
2022-10-08T01:02:37.000Z,20.2
2022-10-08T01:03:53.000Z,14.7
2022-10-08T01:05:09.000Z,12.5
2022-10-08T01:06:26.000Z,13
2022-10-08T01:07:42.000Z,15.2
2022-10-08T01:08:58.000Z,10.8
2022-10-08T01:10:14.000Z,17.6
2022-10-08T01:11:30.000Z,14.7
2022-10-08T01:12:47.000Z,7.6
2022-10-08T01:14:03.000Z,7.6
2022-10-08T01:15:19.000Z,12.5
2022-10-08T01:16:35.000Z,11.8
2022-10-08T01:17:52.000Z,13.7
2022-10-08T01:19:07.000Z,12.7
2022-10-08T01:20:23.000Z,18.1
2022-10-08T01:21:39.000Z,10.2
2022-10-08T01:22:56.000Z,19.8
2022-10-08T01:24:12.000Z,14.7
2022-10-08T01:25:28.000Z,12.8
2022-10-08T01:26:44.000Z,9.7
2022-10-08T01:28:00.000Z,19.9
2022-10-08T01:29:15.000Z,13.9
2022-10-08T01:30:31.000Z,12.8
2022-10-08T01:31:46.000Z,9.9
2022-10-08T01:33:02.000Z,18.9
2022-10-08T01:34:18.000Z,11.6
2022-10-08T01:35:34.000Z,7.8
2022-10-08T01:36:50.000Z,12.5
2022-10-08T01:38:06.000Z,15.6
2022-10-08T01:39:23.000Z,12.1
2022-10-08T01:40:39.000Z,13.3
2022-10-08T01:41:55.000Z,9.3
2022-10-08T01:43:11.000Z,10
2022-10-08T01:44:28.000Z,23.8
2022-10-08T01:45:44.000Z,9.9
2022-10-08T01:47:00.000Z,16
2022-10-08T01:48:16.000Z,14.1
2022-10-08T01:49:32.000Z,17.2
2022-10-08T01:50:48.000Z,16.7
2022-10-08T01:52:04.000Z,13.3
2022-10-08T01:53:20.000Z,20.2
2022-10-08T01:54:37.000Z,15.2
2022-10-08T01:55:53.000Z,8.5
2022-10-08T01:57:09.000Z,20
2022-10-08T01:58:25.000Z,19.7
2022-10-08T01:59:41.000Z,14.5
2022-10-08T02:00:58.000Z,19.2
2022-10-08T02:02:14.000Z,12.2
2022-10-08T02:03:29.000Z,17.1
2022-10-08T02:04:44.000Z,16.2
2022-10-08T02:06:00.000Z,8.7
2022-10-08T02:07:15.000Z,13.5
2022-10-08T02:08:31.000Z,11.7
2022-10-08T02:09:47.000Z,7.6
2022-10-08T02:11:04.000Z,8.4
2022-10-08T02:12:20.000Z,11.8
2022-10-08T02:13:36.000Z,15
2022-10-08T02:14:52.000Z,6.3
2022-10-08T02:16:09.000Z,11.2
2022-10-08T02:17:25.000Z,9.1
2022-10-08T02:18:41.000Z,13.4
2022-10-08T02:19:57.000Z,9.3
2022-10-08T02:21:14.000Z,11.1
2022-10-08T02:22:30.000Z,12.1
2022-10-08T02:23:45.000Z,8.9
2022-10-08T02:25:01.000Z,15.9
2022-10-08T02:26:17.000Z,13.1
2022-10-08T02:27:34.000Z,9.5
2022-10-08T02:28:50.000Z,13.6
2022-10-08T02:30:06.000Z,9.5
2022-10-08T02:31:22.000Z,11.5
2022-10-08T02:32:38.000Z,11.8
2022-10-08T02:33:53.000Z,13.7
2022-10-08T02:35:08.000Z,14
2022-10-08T02:36:23.000Z,16.6
2022-10-08T02:37:40.000Z,16.6
2022-10-08T02:38:56.000Z,11.7
2022-10-08T02:40:12.000Z,15.5
2022-10-08T02:41:28.000Z,11.2
2022-10-08T02:42:45.000Z,10.5
2022-10-08T02:44:01.000Z,9.3
2022-10-08T02:45:17.000Z,12.6
2022-10-08T02:46:33.000Z,19.4
2022-10-08T02:47:50.000Z,11.5
2022-10-08T02:49:06.000Z,8.2
2022-10-08T02:50:22.000Z,5
2022-10-08T02:51:38.000Z,11
2022-10-08T02:52:54.000Z,7.3
2022-10-08T02:54:10.000Z,10
2022-10-08T02:55:26.000Z,13.6
2022-10-08T02:56:42.000Z,11.9
2022-10-08T02:57:58.000Z,13.5
2022-10-08T02:59:15.000Z,16.5
2022-10-08T03:00:31.000Z,8.7
2022-10-08T03:01:46.000Z,16
2022-10-08T03:03:01.000Z,7.1
2022-10-08T03:04:17.000Z,13.6
2022-10-08T03:05:32.000Z,5.2
2022-10-08T03:06:48.000Z,6
2022-10-08T03:08:04.000Z,12.1
2022-10-08T03:09:21.000Z,9.8
2022-10-08T03:10:37.000Z,12
2022-10-08T03:11:53.000Z,6.6
2022-10-08T03:13:09.000Z,14.1
2022-10-08T03:14:26.000Z,7.6
2022-10-08T03:15:42.000Z,13.4
2022-10-08T03:16:58.000Z,10.7
2022-10-08T03:18:14.000Z,13.5
2022-10-08T03:19:31.000Z,11.1
2022-10-08T03:20:47.000Z,9.1
2022-10-08T03:22:02.000Z,16.1
2022-10-08T03:23:18.000Z,17.7
2022-10-08T03:24:34.000Z,10.1
2022-10-08T03:25:51.000Z,13.3
2022-10-08T03:27:07.000Z,12.7
2022-10-08T03:28:23.000Z,9.4
2022-10-08T03:29:39.000Z,6.8
2022-10-08T03:30:55.000Z,10.3
2022-10-08T03:32:10.000Z,8.4
2022-10-08T03:33:25.000Z,8.3
2022-10-08T03:34:40.000Z,13.3
2022-10-08T03:35:57.000Z,10
2022-10-08T03:37:13.000Z,9
2022-10-08T03:38:29.000Z,11
2022-10-08T03:39:45.000Z,8.8
2022-10-08T03:41:02.000Z,5.4
2022-10-08T03:42:18.000Z,8.4
2022-10-08T03:43:34.000Z,10.5
2022-10-08T03:44:50.000Z,12.8
2022-10-08T03:46:07.000Z,16.2
2022-10-08T03:47:23.000Z,13.5
2022-10-08T03:48:39.000Z,15.4
2022-10-08T03:49:55.000Z,18.4
2022-10-08T03:51:10.000Z,13.3
2022-10-08T03:52:27.000Z,17.7
2022-10-08T03:53:43.000Z,15
2022-10-08T03:54:59.000Z,18.3
2022-10-08T03:56:15.000Z,12.6
2022-10-08T03:57:32.000Z,10.8
2022-10-08T03:58:48.000Z,14.2
2022-10-08T04:00:04.000Z,10.7
2022-10-08T04:01:20.000Z,12.3
2022-10-08T04:02:36.000Z,6.3
2022-10-08T04:03:51.000Z,11.7
2022-10-08T04:05:07.000Z,18
2022-10-08T04:06:23.000Z,9
2022-10-08T04:07:40.000Z,11
2022-10-08T04:08:56.000Z,12.4
2022-10-08T04:10:12.000Z,12.9
2022-10-08T04:11:28.000Z,10.9
2022-10-08T04:12:45.000Z,11.6
2022-10-08T04:14:01.000Z,14.7
2022-10-08T04:15:17.000Z,13.2
2022-10-08T04:16:33.000Z,13.6
2022-10-08T04:17:49.000Z,10.6
2022-10-08T04:19:06.000Z,16.4
2022-10-08T04:20:21.000Z,14
2022-10-08T04:21:37.000Z,20
2022-10-08T04:22:53.000Z,21
2022-10-08T04:24:10.000Z,8.2
2022-10-08T04:25:26.000Z,18.4
2022-10-08T04:26:42.000Z,19.4
2022-10-08T04:27:58.000Z,16.3
2022-10-08T04:29:14.000Z,19.5
2022-10-08T04:30:29.000Z,11.1
2022-10-08T04:31:44.000Z,14.9
2022-10-08T04:32:59.000Z,8.7
2022-10-08T04:34:16.000Z,19.7
2022-10-08T04:35:31.000Z,11.4
2022-10-08T04:36:46.000Z,9.9
2022-10-08T04:38:02.000Z,10.5
2022-10-08T04:39:19.000Z,11.5
2022-10-08T04:40:35.000Z,11.3
2022-10-08T04:41:51.000Z,14.4
2022-10-08T04:43:07.000Z,11.1
2022-10-08T04:44:23.000Z,11.8
2022-10-08T04:45:40.000Z,9.1
2022-10-08T04:46:56.000Z,14.8
2022-10-08T04:48:12.000Z,18.4
2022-10-08T04:49:28.000Z,19.4
2022-10-08T04:50:45.000Z,15
2022-10-08T04:52:01.000Z,19.5
2022-10-08T04:53:16.000Z,10.8
2022-10-08T04:54:32.000Z,9.7
2022-10-08T04:55:49.000Z,23.7
2022-10-08T04:57:05.000Z,15.8
2022-10-08T04:58:21.000Z,21.2
2022-10-08T04:59:37.000Z,9.8
2022-10-08T05:00:54.000Z,14
2022-10-08T05:02:09.000Z,22.7
2022-10-08T05:03:24.000Z,13
2022-10-08T05:04:40.000Z,21.4
2022-10-08T05:05:57.000Z,22.7
2022-10-08T05:07:12.000Z,13
2022-10-08T05:08:27.000Z,12.8
2022-10-08T05:09:43.000Z,24.1
2022-10-08T05:11:00.000Z,25.7
2022-10-08T05:12:16.000Z,19.9
2022-10-08T05:13:32.000Z,23.2
2022-10-08T05:14:48.000Z,7.2
2022-10-08T05:16:04.000Z,20
2022-10-08T05:17:21.000Z,14.9
2022-10-08T05:18:37.000Z,14.4
2022-10-08T05:19:53.000Z,13.1
2022-10-08T05:21:09.000Z,20.5
2022-10-08T05:22:26.000Z,19.4
2022-10-08T05:23:42.000Z,15.5
2022-10-08T05:24:57.000Z,18.6
2022-10-08T05:26:13.000Z,22.6
2022-10-08T05:27:30.000Z,19.1
2022-10-08T05:28:46.000Z,17
2022-10-08T05:30:02.000Z,19.5
2022-10-08T05:31:18.000Z,28.7
2022-10-08T05:32:35.000Z,11.1
2022-10-08T05:33:51.000Z,23.9
2022-10-08T05:35:07.000Z,22.9
2022-10-08T05:36:23.000Z,13.2
2022-10-08T05:37:39.000Z,15.5
2022-10-08T05:38:56.000Z,17.7
2022-10-08T05:40:12.000Z,14.8
2022-10-08T05:41:27.000Z,16.9
2022-10-08T05:42:43.000Z,14.3
2022-10-08T05:44:00.000Z,16
2022-10-08T05:45:16.000Z,12.7
2022-10-08T05:46:32.000Z,14.4
2022-10-08T05:47:48.000Z,17.4
2022-10-08T05:49:05.000Z,12.5
2022-10-08T05:50:21.000Z,12.9
2022-10-08T05:51:37.000Z,12.9
2022-10-08T05:52:53.000Z,18.4
2022-10-08T05:54:10.000Z,14.9
2022-10-08T05:55:26.000Z,11
2022-10-08T05:56:42.000Z,13.6
2022-10-08T05:57:57.000Z,12.1
2022-10-08T05:59:13.000Z,11.4
2022-10-08T06:00:30.000Z,12.5
2022-10-08T06:01:46.000Z,16.4
2022-10-08T06:03:02.000Z,7.8
2022-10-08T06:04:18.000Z,15.3
2022-10-08T06:05:35.000Z,16.6
2022-10-08T06:06:51.000Z,24.1
2022-10-08T06:08:07.000Z,18.5
2022-10-08T06:09:23.000Z,17.4
2022-10-08T06:10:40.000Z,14.5
2022-10-08T06:11:56.000Z,16.7
2022-10-08T06:13:12.000Z,17.3
2022-10-08T06:14:27.000Z,12.8
2022-10-08T06:15:44.000Z,17.7
2022-10-08T06:17:00.000Z,18.3
2022-10-08T06:18:16.000Z,13.5
2022-10-08T06:19:32.000Z,16.8
2022-10-08T06:20:48.000Z,16
2022-10-08T06:22:05.000Z,17
2022-10-08T06:23:21.000Z,22.7
2022-10-08T06:24:37.000Z,21.6
2022-10-08T06:25:53.000Z,14.8
2022-10-08T06:27:10.000Z,15.1
2022-10-08T06:28:26.000Z,13.4
2022-10-08T06:29:41.000Z,16.4
2022-10-08T06:30:56.000Z,15
2022-10-08T06:32:13.000Z,20.7
2022-10-08T06:33:29.000Z,15.7
2022-10-08T06:34:45.000Z,17
2022-10-08T06:36:00.000Z,17.6
2022-10-08T06:37:16.000Z,15.8
2022-10-08T06:38:32.000Z,17.7
2022-10-08T06:39:48.000Z,16.6
2022-10-08T06:41:04.000Z,17.5
2022-10-08T06:42:21.000Z,25.5
2022-10-08T06:43:37.242Z,17.4
2022-10-08T06:44:53.000Z,20.4
2022-10-08T06:46:09.000Z,22.3
2022-10-08T06:47:25.000Z,17
2022-10-08T06:48:42.000Z,16.3
2022-10-08T06:49:58.000Z,15.9
2022-10-08T06:51:14.000Z,14
2022-10-08T06:52:30.000Z,12.6
2022-10-08T06:53:46.000Z,18.2
2022-10-08T06:55:02.000Z,21.2
2022-10-08T06:56:18.000Z,18.4
2022-10-08T06:57:34.000Z,24.2
2022-10-08T06:58:51.000Z,14.5
2022-10-08T07:00:07.000Z,14
2022-10-08T07:01:23.000Z,16.5
2022-10-08T07:02:38.000Z,19.5
2022-10-08T07:03:54.000Z,20.2
2022-10-08T07:05:10.000Z,19.6
2022-10-08T07:06:26.000Z,13.1
2022-10-08T07:07:41.000Z,24.8
2022-10-08T07:08:57.000Z,21.7
2022-10-08T07:10:13.000Z,17.5
2022-10-08T07:11:29.000Z,13.6
2022-10-08T07:12:45.000Z,11.2
2022-10-08T07:14:01.000Z,8
2022-10-08T07:15:18.000Z,19.2
2022-10-08T07:16:34.000Z,14.9
2022-10-08T07:17:50.000Z,20.4
2022-10-08T07:19:06.000Z,13.1
2022-10-08T07:20:23.000Z,13.2
2022-10-08T07:21:39.000Z,13.9
2022-10-08T07:22:55.000Z,16
2022-10-08T07:24:11.000Z,8.5
2022-10-08T07:25:27.000Z,20
2022-10-08T07:26:43.000Z,13
2022-10-08T07:27:59.000Z,12.2
2022-10-08T07:29:15.000Z,14.2
2022-10-08T07:30:32.000Z,17.1
2022-10-08T07:31:48.000Z,8.7
2022-10-08T07:33:04.000Z,15.2
2022-10-08T07:34:20.000Z,9.8
2022-10-08T07:35:36.000Z,12.7
2022-10-08T07:36:52.000Z,12
2022-10-08T07:38:07.000Z,18.8
2022-10-08T07:39:22.000Z,11.2
2022-10-08T07:40:37.000Z,10.6
2022-10-08T07:41:54.000Z,17.2
2022-10-08T07:43:10.000Z,14.5
2022-10-08T07:44:26.000Z,16.3
2022-10-08T07:45:42.000Z,10.8
2022-10-08T07:46:59.000Z,10.8
2022-10-08T07:48:15.000Z,14.6
2022-10-08T07:49:31.000Z,17.7
2022-10-08T07:50:47.000Z,13.8
2022-10-08T07:52:04.000Z,13.1
2022-10-08T07:53:20.000Z,12.8
2022-10-08T07:54:36.000Z,11.6
2022-10-08T07:55:52.000Z,7.9
2022-10-08T07:57:08.000Z,14.7
2022-10-08T07:58:24.000Z,17.6
2022-10-08T07:59:40.000Z,9.6
2022-10-08T08:00:56.000Z,17.7
2022-10-08T08:02:12.000Z,14.4
2022-10-08T08:03:29.000Z,10.8
2022-10-08T08:04:45.000Z,11
2022-10-08T08:06:01.000Z,15.4
2022-10-08T08:07:16.000Z,11.9
2022-10-08T08:08:32.000Z,15.2
2022-10-08T08:09:47.000Z,11.4
2022-10-08T08:11:02.000Z,8.7
2022-10-08T08:12:18.000Z,11.2
2022-10-08T08:13:35.000Z,7.2
2022-10-08T08:14:51.000Z,7.1
2022-10-08T08:16:07.000Z,9.4
2022-10-08T08:17:23.000Z,14.2
2022-10-08T08:18:40.000Z,12.3
2022-10-08T08:19:56.000Z,7.1
2022-10-08T08:21:12.000Z,8.6
2022-10-08T08:22:28.000Z,6.2
2022-10-08T08:23:45.000Z,6.8
2022-10-08T08:25:01.000Z,10.4
2022-10-08T08:26:17.000Z,7.1
2022-10-08T08:27:32.000Z,7.3
2022-10-08T08:28:48.000Z,7.9
2022-10-08T08:30:05.000Z,11.1
2022-10-08T08:31:21.000Z,12.8
2022-10-08T08:32:37.000Z,10.3
2022-10-08T08:33:53.000Z,12.5
2022-10-08T08:35:10.000Z,12.6
2022-10-08T08:36:25.000Z,6.3
2022-10-08T08:37:40.000Z,5.3
2022-10-08T08:38:55.000Z,6.8
2022-10-08T08:40:11.000Z,8.7
2022-10-08T08:41:27.000Z,12.4
2022-10-08T08:42:43.000Z,5.2
2022-10-08T08:43:59.000Z,12.6
2022-10-08T08:45:16.000Z,3.9
2022-10-08T08:46:32.000Z,5.8
2022-10-08T08:47:48.000Z,7.5
2022-10-08T08:49:04.000Z,12.8
2022-10-08T08:50:21.000Z,3.5
2022-10-08T08:51:37.000Z,4.2
2022-10-08T08:52:53.000Z,7.2
2022-10-08T08:54:09.000Z,6.7
2022-10-08T08:55:25.000Z,2.3
2022-10-08T08:56:41.000Z,5.2
2022-10-08T08:57:57.000Z,6.5
2022-10-08T08:59:13.000Z,10.1
2022-10-08T09:00:29.000Z,7.7
2022-10-08T09:01:46.000Z,5.4
2022-10-08T09:03:02.000Z,11.1
2022-10-08T09:04:18.000Z,7
2022-10-08T09:05:34.000Z,8.8
2022-10-08T09:06:50.000Z,6.6
2022-10-08T09:08:05.000Z,9
2022-10-08T09:09:20.000Z,9.2
2022-10-08T09:10:35.000Z,3.4
2022-10-08T09:11:52.000Z,8.7
2022-10-08T09:13:08.000Z,3.8
2022-10-08T09:14:24.000Z,14.2
2022-10-08T09:15:40.000Z,10.5
2022-10-08T09:16:57.000Z,5.8
2022-10-08T09:18:13.000Z,8.2
2022-10-08T09:19:29.000Z,8.5
2022-10-08T09:20:45.000Z,2.1
2022-10-08T09:22:02.000Z,7.7
2022-10-08T09:23:17.000Z,5
2022-10-08T09:24:33.000Z,4.6
2022-10-08T09:25:49.000Z,6.5
2022-10-08T09:27:05.000Z,7.1
2022-10-08T09:28:22.000Z,7.1
2022-10-08T09:29:38.000Z,7.3
2022-10-08T09:30:54.000Z,4.8
2022-10-08T09:32:10.000Z,4.7
2022-10-08T09:33:27.000Z,5.6
2022-10-08T09:34:43.000Z,7
2022-10-08T09:35:58.000Z,6
2022-10-08T09:38:30.000Z,7.1
2022-10-08T09:39:45.000Z,4
2022-10-08T09:41:00.000Z,6.5
2022-10-08T09:42:16.000Z,6.2
2022-10-08T09:43:33.000Z,4.6
2022-10-08T09:44:49.000Z,4.6
2022-10-08T09:46:05.000Z,5.3
2022-10-08T09:47:21.000Z,5.4
2022-10-08T09:48:38.000Z,3
2022-10-08T09:49:54.000Z,5.2
2022-10-08T09:51:10.000Z,7.5
2022-10-08T09:52:26.000Z,3.1
2022-10-08T09:53:42.000Z,8.2
2022-10-08T09:54:59.000Z,5.2
2022-10-08T09:56:15.000Z,3.8
2022-10-08T09:57:31.000Z,6.6
2022-10-08T09:58:47.000Z,9.5
2022-10-08T10:00:03.000Z,1.5
2022-10-08T10:01:19.000Z,6.6
2022-10-08T10:02:35.000Z,8.3
2022-10-08T10:03:51.000Z,5.4
2022-10-08T10:05:08.000Z,6.3
2022-10-08T10:06:23.000Z,9.7
2022-10-08T10:07:38.000Z,4.1
2022-10-08T10:08:54.000Z,3.4
2022-10-08T10:10:11.000Z,7.8
2022-10-08T10:11:27.000Z,3
2022-10-08T10:12:43.000Z,2.5
2022-10-08T10:13:59.000Z,5.6
2022-10-08T10:15:16.000Z,5.7
2022-10-08T10:16:32.000Z,6.7
2022-10-08T10:17:48.000Z,3.4
2022-10-08T10:19:04.000Z,6.3
2022-10-08T10:20:20.000Z,7.1
2022-10-08T10:21:37.000Z,5.2
2022-10-08T10:22:53.000Z,3.8
2022-10-08T10:24:08.000Z,4.2
2022-10-08T10:25:24.000Z,3.9
2022-10-08T10:26:41.000Z,7.5
2022-10-08T10:27:57.000Z,3
2022-10-08T10:29:13.000Z,7.9
2022-10-08T10:30:29.000Z,5.4
2022-10-08T10:31:46.000Z,4.1
2022-10-08T10:33:01.000Z,1.6
2022-10-08T10:34:17.000Z,4.8
2022-10-08T10:35:32.000Z,6
2022-10-08T10:36:48.076Z,2.1
2022-10-08T10:38:04.000Z,2
2022-10-08T10:39:19.000Z,3.4
2022-10-08T10:40:34.000Z,6
2022-10-08T10:41:51.000Z,4.7
2022-10-08T10:43:07.000Z,5.2
2022-10-08T10:44:23.000Z,5.7
2022-10-08T10:45:39.000Z,4.9
2022-10-08T10:46:55.000Z,3.4
2022-10-08T10:48:12.000Z,2.3
2022-10-08T10:49:28.000Z,1.7
2022-10-08T10:50:44.000Z,2.9
2022-10-08T10:52:00.000Z,3.6
2022-10-08T10:53:17.000Z,1.7
2022-10-08T10:54:33.000Z,3.3
2022-10-08T10:55:49.000Z,3.1
2022-10-08T10:57:05.000Z,6.4
2022-10-08T10:58:21.000Z,6.9
2022-10-08T10:59:37.000Z,4.3
2022-10-08T11:00:53.000Z,7.1
2022-10-08T11:02:09.000Z,4.3
2022-10-08T11:03:26.000Z,3.6
2022-10-08T11:04:42.000Z,2.1
2022-10-08T11:05:57.000Z,1.6
2022-10-08T11:07:12.000Z,4.8
2022-10-08T11:08:29.000Z,3.4
2022-10-08T11:09:45.000Z,2.2
2022-10-08T11:11:00.000Z,0.4
2022-10-08T11:12:15.000Z,0.3
2022-10-08T11:13:32.000Z,0.4
2022-10-08T11:14:48.000Z,3.8
2022-10-08T11:16:04.000Z,3.5
2022-10-08T11:17:20.000Z,0.9
2022-10-08T11:18:36.000Z,0.7
2022-10-08T11:19:53.000Z,0.9
2022-10-08T11:21:09.000Z,3.5
2022-10-08T11:22:25.000Z,5.9
2022-10-08T11:23:41.000Z,0.8
2022-10-08T11:24:58.000Z,3.3
2022-10-08T11:26:14.000Z,1.1
2022-10-08T11:27:30.000Z,2.6
2022-10-08T11:28:45.000Z,2.9
2022-10-08T11:30:02.000Z,3
2022-10-08T11:31:18.000Z,0.5
2022-10-08T11:32:34.000Z,4.3
2022-10-08T11:33:50.000Z,4.3
2022-10-08T11:35:06.000Z,5.4
2022-10-08T11:36:23.000Z,2.5
2022-10-08T11:37:39.000Z,2
2022-10-08T11:38:55.000Z,9.6
2022-10-08T11:40:11.000Z,4.4
2022-10-08T11:41:28.000Z,1.7
2022-10-08T11:42:44.000Z,2.9
2022-10-08T11:44:00.000Z,4.5
2022-10-08T11:45:15.000Z,4.2
2022-10-08T11:46:32.000Z,2.9
2022-10-08T11:47:48.000Z,5
2022-10-08T11:49:04.000Z,10.8
2022-10-08T11:50:20.000Z,0.7
2022-10-08T11:51:36.000Z,3
2022-10-08T11:52:51.000Z,6.9
2022-10-08T11:54:07.000Z,5.5
2022-10-08T11:55:22.000Z,6.1
2022-10-08T11:56:38.000Z,3.8
2022-10-08T11:57:54.000Z,5.4
2022-10-08T11:59:10.000Z,4.4
2022-10-08T12:00:26.000Z,6.1
2022-10-08T12:01:43.000Z,3.6
2022-10-08T12:02:59.000Z,1.5
2022-10-08T12:04:15.000Z,2.5
2022-10-08T12:05:31.000Z,0.9
2022-10-08T12:06:47.000Z,2.2
2022-10-08T12:08:04.000Z,6
2022-10-08T12:09:20.000Z,1.7
2022-10-08T12:10:36.000Z,2.3
2022-10-08T12:11:52.000Z,4.9
2022-10-08T12:13:08.000Z,2
2022-10-08T12:14:24.000Z,2.3
2022-10-08T12:15:40.000Z,1.4
2022-10-08T12:16:56.000Z,3.7
2022-10-08T12:18:13.000Z,7.4
2022-10-08T12:19:29.000Z,4.4
2022-10-08T12:20:45.000Z,2.2
2022-10-08T12:22:01.000Z,1.9
2022-10-08T12:23:17.000Z,2.1
2022-10-08T12:24:32.000Z,1.9
2022-10-08T12:25:47.000Z,5.2
2022-10-08T12:27:02.000Z,2.5
2022-10-08T12:28:19.000Z,7.2
2022-10-08T12:29:35.000Z,2.4
2022-10-08T12:30:51.000Z,3
2022-10-08T12:32:07.000Z,4.4
2022-10-08T12:33:23.000Z,4.5
2022-10-08T12:34:40.000Z,3.1
2022-10-08T12:35:56.000Z,2.3
2022-10-08T12:37:12.000Z,6
2022-10-08T12:38:28.000Z,4.2
2022-10-08T12:39:45.000Z,2.7
2022-10-08T12:41:01.000Z,3.8
2022-10-08T12:42:17.000Z,1.6
2022-10-08T12:43:32.000Z,6
2022-10-08T12:44:49.000Z,1.2
2022-10-08T12:46:05.000Z,4.6
2022-10-08T12:47:21.000Z,2.8
2022-10-08T12:48:37.000Z,2.3
2022-10-08T12:49:54.000Z,2.3
2022-10-08T12:51:10.000Z,3
2022-10-08T12:52:25.000Z,3.4
2022-10-08T12:53:40.000Z,4.5
2022-10-08T12:54:56.000Z,7
2022-10-08T12:56:13.000Z,4.4
2022-10-08T12:57:29.000Z,4.6
2022-10-08T12:58:45.000Z,5
2022-10-08T13:00:01.000Z,4
2022-10-08T13:01:18.000Z,3.6
2022-10-08T13:02:34.000Z,3.3
2022-10-08T13:03:50.000Z,5.5
2022-10-08T13:05:06.000Z,3.7
2022-10-08T13:06:23.000Z,1.3
2022-10-08T13:07:39.000Z,2.3
2022-10-08T13:08:55.000Z,5.7
2022-10-08T13:10:10.000Z,9.8
2022-10-08T13:11:27.000Z,4.7
2022-10-08T13:12:43.000Z,3.6
2022-10-08T13:13:59.000Z,1.3
2022-10-08T13:15:15.000Z,2.6
2022-10-08T13:16:31.000Z,2.7
2022-10-08T13:17:48.000Z,0.5
2022-10-08T13:19:04.000Z,1.8
2022-10-08T13:20:19.000Z,1.8
2022-10-08T13:21:34.000Z,2.7
2022-10-08T13:22:50.000Z,6.6
2022-10-08T13:24:05.000Z,2.2
2022-10-08T13:25:21.000Z,4.2
2022-10-08T13:26:36.000Z,2.2
2022-10-08T13:27:52.000Z,7.3
2022-10-08T13:29:08.000Z,2.9
2022-10-08T13:30:24.000Z,2.5
2022-10-08T13:31:40.000Z,3
2022-10-08T13:32:57.000Z,3.4
2022-10-08T13:34:13.000Z,1.7
2022-10-08T13:35:29.000Z,2.5
2022-10-08T13:36:45.000Z,3.2
2022-10-08T13:38:01.000Z,4
2022-10-08T13:39:17.000Z,4.7
2022-10-08T13:40:33.000Z,5.4
2022-10-08T13:41:49.000Z,3
2022-10-08T13:43:06.000Z,1.8
2022-10-08T13:44:22.000Z,2.8
2022-10-08T13:45:38.000Z,2.5
2022-10-08T13:46:54.000Z,0.3
2022-10-08T13:48:10.000Z,3.1
2022-10-08T13:49:27.000Z,1.4
2022-10-08T13:50:43.000Z,3.9
2022-10-08T13:51:59.000Z,3.1
2022-10-08T13:53:14.000Z,3.7
2022-10-08T13:54:30.000Z,3
2022-10-08T13:55:46.000Z,3.3
2022-10-08T13:57:02.000Z,2.9
2022-10-08T13:58:17.000Z,2.5
2022-10-08T13:59:33.000Z,1.1
2022-10-08T14:00:49.000Z,1.9
2022-10-08T14:02:05.000Z,2.6
2022-10-08T14:03:21.000Z,2.5
2022-10-08T14:04:38.000Z,1.9
2022-10-08T14:05:54.000Z,1.9
2022-10-08T14:07:10.000Z,2.1
2022-10-08T14:08:26.000Z,2.2
2022-10-08T14:09:43.000Z,4.5
2022-10-08T14:10:59.000Z,1.2
2022-10-08T14:12:15.000Z,2.4
2022-10-08T14:13:31.000Z,1.9
2022-10-08T14:14:47.000Z,1.3
2022-10-08T14:16:03.000Z,0.6
2022-10-08T14:17:19.000Z,1.3
2022-10-08T14:18:35.000Z,2.8
2022-10-08T14:19:51.000Z,2.7
2022-10-08T14:21:08.000Z,2.6
2022-10-08T14:22:24.000Z,4.1
2022-10-08T14:23:40.000Z,2.3
2022-10-08T14:24:55.000Z,4.5
2022-10-08T14:26:11.000Z,3.2
2022-10-08T14:27:26.000Z,2.1
2022-10-08T14:28:41.000Z,3.2
2022-10-08T14:29:57.000Z,3.3
2022-10-08T14:31:14.000Z,0.8
2022-10-08T14:32:30.000Z,2.4
2022-10-08T14:33:46.000Z,2.5
2022-10-08T14:35:02.000Z,4.7
2022-10-08T14:36:19.000Z,2.5
2022-10-08T14:37:35.000Z,1.9
2022-10-08T14:38:51.000Z,2.7
2022-10-08T14:40:07.000Z,3.7
2022-10-08T14:41:24.000Z,1.5
2022-10-08T14:42:40.000Z,0.7
2022-10-08T14:43:56.000Z,0.9
2022-10-08T14:45:12.000Z,4.7
2022-10-08T14:46:27.000Z,2.7
2022-10-08T14:47:44.000Z,1.6
2022-10-08T14:49:00.000Z,4.1
2022-10-08T14:50:16.000Z,5.4
2022-10-08T14:51:32.000Z,3.1
2022-10-08T14:52:49.000Z,3.1
2022-10-08T14:54:04.000Z,2.8
2022-10-08T14:55:19.000Z,2
2022-10-08T14:56:35.000Z,2.4
2022-10-08T14:57:51.000Z,1.4
2022-10-08T14:59:06.000Z,1.2
2022-10-08T15:00:22.000Z,4.9
2022-10-08T15:01:38.000Z,1.3
2022-10-08T15:02:55.000Z,2.8
2022-10-08T15:04:11.000Z,0.7
2022-10-08T15:05:27.000Z,6.3
2022-10-08T15:06:43.000Z,2.7
2022-10-08T15:08:00.000Z,3.5
2022-10-08T15:09:16.000Z,2.3
2022-10-08T15:10:32.000Z,6.8
2022-10-08T15:11:48.000Z,4.2
2022-10-08T15:13:04.000Z,2
2022-10-08T15:14:21.000Z,1.5
2022-10-08T15:15:36.000Z,3.2
2022-10-08T15:16:52.000Z,4.4
2022-10-08T15:18:08.000Z,1.7
2022-10-08T15:19:25.000Z,5.3
2022-10-08T15:20:41.000Z,1
2022-10-08T15:21:57.000Z,2.1
2022-10-08T15:23:13.000Z,2.3
2022-10-08T15:24:29.000Z,3
2022-10-08T15:25:44.000Z,4.6
2022-10-08T15:27:00.000Z,2.9
2022-10-08T15:28:15.000Z,4
2022-10-08T15:29:31.000Z,3.1
2022-10-08T15:30:47.000Z,1.7
2022-10-08T15:32:03.000Z,5.6
2022-10-08T15:33:19.000Z,5.9
2022-10-08T15:34:36.000Z,2.1
2022-10-08T15:35:52.000Z,6.6
2022-10-08T15:37:08.000Z,3.6
2022-10-08T15:38:24.000Z,5.1
2022-10-08T15:39:40.000Z,6.3
2022-10-08T15:40:57.000Z,2.7
2022-10-08T15:42:13.000Z,4.5
2022-10-08T15:43:29.000Z,2.4
2022-10-08T15:44:45.000Z,5.5
2022-10-08T15:46:01.000Z,4
2022-10-08T15:47:17.000Z,4.1
2022-10-08T15:48:33.000Z,3.8
2022-10-08T15:49:49.000Z,4.1
2022-10-08T15:51:06.000Z,3.7
2022-10-08T15:52:22.000Z,6.8
2022-10-08T15:53:38.000Z,2
2022-10-08T15:54:54.000Z,3.1
2022-10-08T15:56:11.000Z,3.8
2022-10-08T15:57:26.000Z,2.3
2022-10-08T15:58:41.000Z,5.9
2022-10-08T15:59:56.000Z,1.7
2022-10-08T16:01:12.000Z,2.1
2022-10-08T16:02:28.000Z,5
2022-10-08T16:03:44.000Z,3.3
2022-10-08T16:05:00.000Z,4.1
2022-10-08T16:06:17.000Z,4.9
2022-10-08T16:07:33.000Z,4.6
2022-10-08T16:08:49.000Z,4.6
2022-10-08T16:10:05.000Z,5
2022-10-08T16:11:21.000Z,7.2
2022-10-08T16:12:38.000Z,5
2022-10-08T16:13:54.000Z,3.2
2022-10-08T16:15:10.000Z,5.4
2022-10-08T16:16:26.000Z,2.9
2022-10-08T16:17:42.000Z,1.4
2022-10-08T16:18:58.000Z,3.3
2022-10-08T16:20:14.000Z,5.4
2022-10-08T16:21:30.000Z,5.3
2022-10-08T16:22:47.000Z,4.7
2022-10-08T16:24:03.000Z,6.6
2022-10-08T16:25:19.000Z,5.6
2022-10-08T16:26:34.000Z,3.3
2022-10-08T16:27:50.000Z,7.8
2022-10-08T16:29:06.000Z,1.8
2022-10-08T16:30:21.000Z,8.3
2022-10-08T16:31:36.000Z,4.1
2022-10-08T16:32:53.000Z,8.1
2022-10-08T16:34:09.000Z,3.4
2022-10-08T16:35:25.000Z,6.1
2022-10-08T16:36:41.000Z,2.5
2022-10-08T16:37:57.000Z,5.7
2022-10-08T16:39:14.000Z,4.2
2022-10-08T16:40:30.000Z,5.1
2022-10-08T16:41:46.000Z,6.2
2022-10-08T16:43:02.000Z,3
2022-10-08T16:44:19.000Z,7.2
2022-10-08T16:45:35.000Z,3
2022-10-08T16:46:51.000Z,5.4
2022-10-08T16:48:06.000Z,3.5
2022-10-08T16:49:23.000Z,3.4
2022-10-08T16:50:39.000Z,2.4
2022-10-08T16:51:55.000Z,6.6
2022-10-08T16:53:11.000Z,5.8
2022-10-08T16:54:28.000Z,6.6
2022-10-08T16:55:44.000Z,3.3
2022-10-08T16:56:59.000Z,5.9
2022-10-08T16:58:14.000Z,7.5
2022-10-08T16:59:30.000Z,4.2
2022-10-08T17:00:45.000Z,3.6
2022-10-08T17:02:01.000Z,5.8
2022-10-08T17:03:17.000Z,2.2
2022-10-08T17:04:33.000Z,5.2
2022-10-08T17:05:50.000Z,4.7
2022-10-08T17:07:06.000Z,2.7
2022-10-08T17:08:22.000Z,6.6
2022-10-08T17:09:38.000Z,6.4
2022-10-08T17:10:55.000Z,2.3
2022-10-08T17:12:11.000Z,4.2
2022-10-08T17:13:27.000Z,4.9
2022-10-08T17:14:43.000Z,8.2
2022-10-08T17:16:00.000Z,9.6
2022-10-08T17:17:15.000Z,7.1
2022-10-08T17:18:31.000Z,4.9
2022-10-08T17:19:47.000Z,5
2022-10-08T17:21:04.000Z,3.3